sensor_id;sensor_type;location;lat;lon;timestamp;pressure;altitude;pressure_sealevel;temperature;humidity
80853;BME280;70270;43.434;28.338;2023-12-14T00:00:03;99221.28;;;11.80;87.58
80853;BME280;70270;43.434;28.338;2023-12-14T00:02:49;99241.72;;;11.82;87.82
80853;BME280;70270;43.434;28.338;2023-12-14T00:05:34;99244.56;;;11.69;88.61
80853;BME280;70270;43.434;28.338;2023-12-14T00:08:19;99247.63;;;11.79;88.00
80853;BME280;70270;43.434;28.338;2023-12-14T00:11:08;99232.03;;;11.75;88.97
80853;BME280;70270;43.434;28.338;2023-12-14T00:13:53;99154.09;;;11.15;89.16
80853;BME280;70270;43.434;28.338;2023-12-14T00:16:37;99231.63;;;11.71;88.95
80853;BME280;70270;43.434;28.338;2023-12-14T00:19:23;99225.44;;;11.64;89.01
80853;BME280;70270;43.434;28.338;2023-12-14T00:22:08;99237.34;;;11.81;88.29
80853;BME280;70270;43.434;28.338;2023-12-14T00:24:53;99256.47;;;11.68;88.67
80853;BME280;70270;43.434;28.338;2023-12-14T00:27:38;99217.19;;;11.59;89.02
80853;BME280;70270;43.434;28.338;2023-12-14T00:30:22;99228.91;;;11.71;89.61
80853;BME280;70270;43.434;28.338;2023-12-14T00:33:07;99228.47;;;11.74;88.60
80853;BME280;70270;43.434;28.338;2023-12-14T00:35:51;99203.88;;;11.69;88.44
80853;BME280;70270;43.434;28.338;2023-12-14T00:38:36;99166.03;;;11.44;88.34
80853;BME280;70270;43.434;28.338;2023-12-14T00:41:20;99208.03;;;11.71;88.13
80853;BME280;70270;43.434;28.338;2023-12-14T00:44:05;99222.97;;;11.92;87.39
80853;BME280;70270;43.434;28.338;2023-12-14T00:46:50;99211.19;;;11.87;87.83
80853;BME280;70270;43.434;28.338;2023-12-14T00:49:34;99202.59;;;12.01;88.10
80853;BME280;70270;43.434;28.338;2023-12-14T00:52:19;99217.47;;;11.99;87.76
80853;BME280;70270;43.434;28.338;2023-12-14T00:55:04;99216.44;;;12.11;86.60
80853;BME280;70270;43.434;28.338;2023-12-14T00:57:48;99233.88;;;12.04;87.39
80853;BME280;70270;43.434;28.338;2023-12-14T01:00:33;99214.91;;;12.15;86.78
80853;BME280;70270;43.434;28.338;2023-12-14T01:03:17;99202.75;;;12.18;86.21
80853;BME280;70270;43.434;28.338;2023-12-14T01:06:02;99237.00;;;12.19;85.94
80853;BME280;70270;43.434;28.338;2023-12-14T01:08:46;99236.00;;;12.02;86.43
80853;BME280;70270;43.434;28.338;2023-12-14T01:11:31;99207.19;;;12.01;87.03
80853;BME280;70270;43.434;28.338;2023-12-14T01:14:15;99196.78;;;11.86;87.64
80853;BME280;70270;43.434;28.338;2023-12-14T01:16:59;99188.16;;;11.89;88.48
80853;BME280;70270;43.434;28.338;2023-12-14T01:19:44;99189.03;;;11.71;88.28
80853;BME280;70270;43.434;28.338;2023-12-14T01:22:28;99193.47;;;11.96;87.23
80853;BME280;70270;43.434;28.338;2023-12-14T01:25:13;99200.16;;;12.23;86.34
80853;BME280;70270;43.434;28.338;2023-12-14T01:27:57;99195.78;;;12.34;85.67
80853;BME280;70270;43.434;28.338;2023-12-14T01:30:42;99180.81;;;12.43;85.13
80853;BME280;70270;43.434;28.338;2023-12-14T01:33:26;99180.31;;;12.11;86.33
80853;BME280;70270;43.434;28.338;2023-12-14T01:36:11;99179.72;;;12.44;85.41
80853;BME280;70270;43.434;28.338;2023-12-14T01:38:56;99170.50;;;12.68;84.06
80853;BME280;70270;43.434;28.338;2023-12-14T01:41:40;99074.28;;;11.94;85.02
80853;BME280;70270;43.434;28.338;2023-12-14T01:44:24;99099.41;;;12.25;84.54
80853;BME280;70270;43.434;28.338;2023-12-14T01:47:09;99177.97;;;12.49;85.08
80853;BME280;70270;43.434;28.338;2023-12-14T01:49:53;99093.28;;;11.94;85.50
80853;BME280;70270;43.434;28.338;2023-12-14T01:52:38;99176.31;;;12.37;85.80
80853;BME280;70270;43.434;28.338;2023-12-14T01:55:23;99176.28;;;12.25;86.02
80853;BME280;70270;43.434;28.338;2023-12-14T01:58:07;99179.28;;;12.47;86.07
80853;BME280;70270;43.434;28.338;2023-12-14T02:01:04;99178.44;;;12.23;85.92
80853;BME280;70270;43.434;28.338;2023-12-14T02:03:52;99174.75;;;12.41;85.63
80853;BME280;70270;43.434;28.338;2023-12-14T02:06:38;99165.22;;;12.50;85.28
80853;BME280;70270;43.434;28.338;2023-12-14T02:09:23;99162.72;;;12.37;85.47
80853;BME280;70270;43.434;28.338;2023-12-14T02:12:09;99158.72;;;12.28;85.95
80853;BME280;70270;43.434;28.338;2023-12-14T02:14:56;99171.81;;;12.07;87.25
80853;BME280;70270;43.434;28.338;2023-12-14T02:17:41;99193.63;;;12.12;87.46
80853;BME280;70270;43.434;28.338;2023-12-14T02:20:25;99174.84;;;11.99;87.84
80853;BME280;70270;43.434;28.338;2023-12-14T02:23:10;99171.22;;;12.29;86.65
80853;BME280;70270;43.434;28.338;2023-12-14T02:25:54;99177.13;;;12.26;86.45
80853;BME280;70270;43.434;28.338;2023-12-14T02:28:40;99175.94;;;12.22;87.11
80853;BME280;70270;43.434;28.338;2023-12-14T02:31:25;99148.91;;;12.15;86.34
80853;BME280;70270;43.434;28.338;2023-12-14T02:34:09;99172.53;;;12.26;87.09
80853;BME280;70270;43.434;28.338;2023-12-14T02:36:54;99164.03;;;12.34;86.58
80853;BME280;70270;43.434;28.338;2023-12-14T02:40:04;99163.88;;;12.64;85.15
80853;BME280;70270;43.434;28.338;2023-12-14T02:42:49;99171.00;;;12.53;85.23
80853;BME280;70270;43.434;28.338;2023-12-14T02:45:34;99176.19;;;12.55;85.82
80853;BME280;70270;43.434;28.338;2023-12-14T02:48:18;99166.25;;;12.37;85.76
80853;BME280;70270;43.434;28.338;2023-12-14T02:51:03;99171.56;;;12.09;88.22
80853;BME280;70270;43.434;28.338;2023-12-14T02:53:47;99200.53;;;12.27;87.64
80853;BME280;70270;43.434;28.338;2023-12-14T02:56:32;99168.34;;;12.12;88.07
80853;BME280;70270;43.434;28.338;2023-12-14T02:59:16;99187.84;;;12.20;87.27
80853;BME280;70270;43.434;28.338;2023-12-14T03:02:01;99176.41;;;12.18;88.29
80853;BME280;70270;43.434;28.338;2023-12-14T03:04:45;99145.44;;;12.08;88.75
80853;BME280;70270;43.434;28.338;2023-12-14T03:07:30;99151.13;;;11.95;88.84
80853;BME280;70270;43.434;28.338;2023-12-14T03:10:17;99118.25;;;11.73;88.94
80853;BME280;70270;43.434;28.338;2023-12-14T03:13:03;99085.69;;;11.73;88.31
80853;BME280;70270;43.434;28.338;2023-12-14T03:15:47;99161.06;;;12.36;86.77
80853;BME280;70270;43.434;28.338;2023-12-14T03:18:33;99172.66;;;12.43;86.90
80853;BME280;70270;43.434;28.338;2023-12-14T03:21:18;99177.84;;;12.56;86.58
80853;BME280;70270;43.434;28.338;2023-12-14T03:24:03;99181.03;;;12.53;86.52
80853;BME280;70270;43.434;28.338;2023-12-14T03:26:47;99179.13;;;12.77;85.82
80853;BME280;70270;43.434;28.338;2023-12-14T03:29:32;99181.28;;;12.51;86.31
80853;BME280;70270;43.434;28.338;2023-12-14T03:32:17;99055.97;;;11.78;86.34
80853;BME280;70270;43.434;28.338;2023-12-14T03:35:02;99184.69;;;12.70;85.82
80853;BME280;70270;43.434;28.338;2023-12-14T03:37:47;99176.19;;;12.78;85.46
80853;BME280;70270;43.434;28.338;2023-12-14T03:40:31;99170.25;;;12.81;85.33
80853;BME280;70270;43.434;28.338;2023-12-14T03:43:16;99091.25;;;12.25;86.29
80853;BME280;70270;43.434;28.338;2023-12-14T03:46:00;99158.09;;;12.60;85.23
80853;BME280;70270;43.434;28.338;2023-12-14T03:48:44;99162.09;;;12.81;85.10
80853;BME280;70270;43.434;28.338;2023-12-14T03:51:29;99151.38;;;12.75;85.26
80853;BME280;70270;43.434;28.338;2023-12-14T03:54:14;99161.53;;;12.56;85.74
80853;BME280;70270;43.434;28.338;2023-12-14T03:56:58;99163.31;;;12.62;86.01
80853;BME280;70270;43.434;28.338;2023-12-14T03:59:43;99083.81;;;12.55;85.19
80853;BME280;70270;43.434;28.338;2023-12-14T04:02:27;99151.09;;;12.99;83.74
80853;BME280;70270;43.434;28.338;2023-12-14T04:05:15;99159.41;;;13.33;82.93
80853;BME280;70270;43.434;28.338;2023-12-14T04:07:59;99160.94;;;13.29;83.17
80853;BME280;70270;43.434;28.338;2023-12-14T04:10:44;99118.50;;;12.76;82.97
80853;BME280;70270;43.434;28.338;2023-12-14T04:13:28;99087.66;;;12.82;82.74
80853;BME280;70270;43.434;28.338;2023-12-14T04:16:13;99174.47;;;13.24;83.13
80853;BME280;70270;43.434;28.338;2023-12-14T04:18:57;99112.63;;;13.07;82.07
80853;BME280;70270;43.434;28.338;2023-12-14T04:21:42;99187.84;;;13.53;81.58
80853;BME280;70270;43.434;28.338;2023-12-14T04:24:26;99191.94;;;13.39;82.28
80853;BME280;70270;43.434;28.338;2023-12-14T04:27:11;99170.97;;;13.11;82.54
80853;BME280;70270;43.434;28.338;2023-12-14T04:29:55;99169.03;;;13.24;82.02
80853;BME280;70270;43.434;28.338;2023-12-14T04:32:39;99169.50;;;13.21;82.44
80853;BME280;70270;43.434;28.338;2023-12-14T04:35:24;99179.09;;;13.23;82.32
80853;BME280;70270;43.434;28.338;2023-12-14T04:38:08;99184.53;;;12.88;84.19
80853;BME280;70270;43.434;28.338;2023-12-14T04:40:53;99180.63;;;12.96;83.74
80853;BME280;70270;43.434;28.338;2023-12-14T04:43:37;99177.19;;;13.00;83.97
80853;BME280;70270;43.434;28.338;2023-12-14T04:46:22;99172.13;;;12.92;83.48
80853;BME280;70270;43.434;28.338;2023-12-14T04:49:06;99194.97;;;12.68;85.06
80853;BME280;70270;43.434;28.338;2023-12-14T04:51:51;99182.91;;;12.52;84.98
80853;BME280;70270;43.434;28.338;2023-12-14T04:54:35;99085.47;;;11.86;86.18
80853;BME280;70270;43.434;28.338;2023-12-14T04:57:21;99173.00;;;12.46;86.13
80853;BME280;70270;43.434;28.338;2023-12-14T05:00:06;99151.50;;;12.33;86.54
80853;BME280;70270;43.434;28.338;2023-12-14T05:02:51;99160.69;;;12.32;86.42
80853;BME280;70270;43.434;28.338;2023-12-14T05:05:36;99160.59;;;12.39;86.68
80853;BME280;70270;43.434;28.338;2023-12-14T05:08:20;99159.53;;;12.51;85.60
80853;BME280;70270;43.434;28.338;2023-12-14T05:11:05;99177.13;;;12.49;85.83
80853;BME280;70270;43.434;28.338;2023-12-14T05:13:52;99171.81;;;12.42;86.11
80853;BME280;70270;43.434;28.338;2023-12-14T05:16:37;99134.84;;;12.30;85.69
80853;BME280;70270;43.434;28.338;2023-12-14T05:19:22;99141.34;;;12.29;85.74
80853;BME280;70270;43.434;28.338;2023-12-14T05:22:06;99042.06;;;11.86;86.36
80853;BME280;70270;43.434;28.338;2023-12-14T05:24:51;99118.06;;;12.33;86.30
80853;BME280;70270;43.434;28.338;2023-12-14T05:27:35;99122.94;;;12.31;86.31
80853;BME280;70270;43.434;28.338;2023-12-14T05:30:19;99045.59;;;11.75;86.09
80853;BME280;70270;43.434;28.338;2023-12-14T05:33:04;99113.81;;;12.13;87.30
80853;BME280;70270;43.434;28.338;2023-12-14T05:35:49;99029.31;;;11.34;87.61
80853;BME280;70270;43.434;28.338;2023-12-14T05:38:34;99127.97;;;11.92;88.15
80853;BME280;70270;43.434;28.338;2023-12-14T05:41:18;99133.88;;;12.01;87.87
80853;BME280;70270;43.434;28.338;2023-12-14T05:44:03;99126.56;;;12.13;87.11
80853;BME280;70270;43.434;28.338;2023-12-14T05:46:47;99103.91;;;12.07;86.34
80853;BME280;70270;43.434;28.338;2023-12-14T05:49:31;99153.50;;;12.26;86.87
80853;BME280;70270;43.434;28.338;2023-12-14T05:52:16;99121.25;;;12.30;85.76
80853;BME280;70270;43.434;28.338;2023-12-14T05:55:00;99137.81;;;12.51;84.95
80853;BME280;70270;43.434;28.338;2023-12-14T05:57:45;99137.88;;;12.68;84.09
80853;BME280;70270;43.434;28.338;2023-12-14T06:00:30;99135.53;;;12.60;84.19
80853;BME280;70270;43.434;28.338;2023-12-14T06:03:14;99115.25;;;12.28;84.27
80853;BME280;70270;43.434;28.338;2023-12-14T06:05:59;99149.97;;;12.49;84.32
80853;BME280;70270;43.434;28.338;2023-12-14T06:08:43;99163.66;;;12.54;84.55
80853;BME280;70270;43.434;28.338;2023-12-14T06:11:28;99150.66;;;12.56;84.61
80853;BME280;70270;43.434;28.338;2023-12-14T06:14:12;99084.31;;;12.05;84.66
80853;BME280;70270;43.434;28.338;2023-12-14T06:16:58;99158.25;;;12.54;84.72
80853;BME280;70270;43.434;28.338;2023-12-14T06:19:42;99172.88;;;12.53;85.02
80853;BME280;70270;43.434;28.338;2023-12-14T06:22:27;99168.06;;;12.55;84.47
80853;BME280;70270;43.434;28.338;2023-12-14T06:25:11;99177.25;;;12.54;84.71
80853;BME280;70270;43.434;28.338;2023-12-14T06:27:56;99086.53;;;11.85;85.12
80853;BME280;70270;43.434;28.338;2023-12-14T06:30:40;99191.31;;;12.51;84.90
80853;BME280;70270;43.434;28.338;2023-12-14T06:33:25;99172.88;;;12.53;84.92
80853;BME280;70270;43.434;28.338;2023-12-14T06:36:10;99174.75;;;12.41;85.79
80853;BME280;70270;43.434;28.338;2023-12-14T06:38:55;99127.16;;;12.03;85.79
80853;BME280;70270;43.434;28.338;2023-12-14T06:41:39;99170.63;;;12.38;85.22
80853;BME280;70270;43.434;28.338;2023-12-14T06:44:24;99190.00;;;12.42;85.63
80853;BME280;70270;43.434;28.338;2023-12-14T06:47:10;99180.69;;;12.38;86.37
80853;BME280;70270;43.434;28.338;2023-12-14T06:49:55;99076.50;;;11.74;86.65
80853;BME280;70270;43.434;28.338;2023-12-14T06:52:41;99148.66;;;12.16;87.11
80853;BME280;70270;43.434;28.338;2023-12-14T06:55:25;99178.19;;;12.36;86.48
80853;BME280;70270;43.434;28.338;2023-12-14T06:58:10;99184.81;;;12.52;86.15
80853;BME280;70270;43.434;28.338;2023-12-14T07:00:56;99178.19;;;12.48;85.44
80853;BME280;70270;43.434;28.338;2023-12-14T07:03:41;99167.09;;;12.49;85.67
80853;BME280;70270;43.434;28.338;2023-12-14T07:06:26;99104.38;;;12.04;85.19
80853;BME280;70270;43.434;28.338;2023-12-14T07:09:10;99178.28;;;12.76;84.73
80853;BME280;70270;43.434;28.338;2023-12-14T07:11:54;99159.25;;;12.76;84.42
80853;BME280;70270;43.434;28.338;2023-12-14T07:14:39;99165.19;;;12.73;84.67
80853;BME280;70270;43.434;28.338;2023-12-14T07:17:24;99104.81;;;12.48;84.16
80853;BME280;70270;43.434;28.338;2023-12-14T07:20:09;99087.63;;;12.31;84.31
80853;BME280;70270;43.434;28.338;2023-12-14T07:22:54;99178.91;;;12.78;84.62
80853;BME280;70270;43.434;28.338;2023-12-14T07:25:38;99175.94;;;12.91;84.32
80853;BME280;70270;43.434;28.338;2023-12-14T07:28:23;99184.81;;;12.87;84.21
80853;BME280;70270;43.434;28.338;2023-12-14T07:31:08;99171.19;;;12.98;84.05
80853;BME280;70270;43.434;28.338;2023-12-14T07:33:53;99167.16;;;13.01;83.50
80853;BME280;70270;43.434;28.338;2023-12-14T07:36:37;99165.94;;;13.08;83.37
80853;BME280;70270;43.434;28.338;2023-12-14T07:39:22;99183.56;;;13.06;84.17
80853;BME280;70270;43.434;28.338;2023-12-14T07:42:06;99175.22;;;12.84;85.16
80853;BME280;70270;43.434;28.338;2023-12-14T07:44:51;99210.31;;;12.97;85.46
80853;BME280;70270;43.434;28.338;2023-12-14T07:47:35;99198.38;;;12.98;84.97
80853;BME280;70270;43.434;28.338;2023-12-14T07:50:20;99170.00;;;12.94;85.12
80853;BME280;70270;43.434;28.338;2023-12-14T07:53:04;99099.16;;;12.49;84.88
80853;BME280;70270;43.434;28.338;2023-12-14T07:55:48;99187.25;;;12.88;85.46
80853;BME280;70270;43.434;28.338;2023-12-14T07:58:33;99193.19;;;12.85;86.04
80853;BME280;70270;43.434;28.338;2023-12-14T08:01:18;99108.88;;;12.34;85.93
80853;BME280;70270;43.434;28.338;2023-12-14T08:04:03;99188.38;;;12.76;86.12
80853;BME280;70270;43.434;28.338;2023-12-14T08:06:48;99220.00;;;12.93;86.17
80853;BME280;70270;43.434;28.338;2023-12-14T08:09:32;99207.59;;;12.97;86.00
80853;BME280;70270;43.434;28.338;2023-12-14T08:12:17;99220.13;;;12.98;85.63
80853;BME280;70270;43.434;28.338;2023-12-14T08:15:02;99204.75;;;12.92;86.17
80853;BME280;70270;43.434;28.338;2023-12-14T08:17:46;99213.06;;;12.86;85.95
80853;BME280;70270;43.434;28.338;2023-12-14T08:20:30;99216.47;;;12.93;85.83
80853;BME280;70270;43.434;28.338;2023-12-14T08:23:15;99192.94;;;12.98;85.23
80853;BME280;70270;43.434;28.338;2023-12-14T08:25:59;99191.88;;;13.11;85.01
80853;BME280;70270;43.434;28.338;2023-12-14T08:28:44;99174.09;;;13.08;84.66
80853;BME280;70270;43.434;28.338;2023-12-14T08:31:28;99180.00;;;13.29;83.58
80853;BME280;70270;43.434;28.338;2023-12-14T08:34:13;99198.00;;;13.58;82.60
80853;BME280;70270;43.434;28.338;2023-12-14T08:36:57;99197.78;;;13.59;82.38
80853;BME280;70270;43.434;28.338;2023-12-14T08:39:42;99189.78;;;13.70;81.83
80853;BME280;70270;43.434;28.338;2023-12-14T08:42:26;99100.81;;;13.42;81.00
80853;BME280;70270;43.434;28.338;2023-12-14T08:45:11;99062.47;;;13.43;79.97
80853;BME280;70270;43.434;28.338;2023-12-14T08:47:55;99168.63;;;14.22;79.34
80853;BME280;70270;43.434;28.338;2023-12-14T08:50:40;99200.59;;;14.10;78.96
80853;BME280;70270;43.434;28.338;2023-12-14T08:53:24;99174.00;;;14.17;79.23
80853;BME280;70270;43.434;28.338;2023-12-14T08:56:09;99074.75;;;13.46;79.63
80853;BME280;70270;43.434;28.338;2023-12-14T08:58:54;99146.19;;;14.15;79.47
80853;BME280;70270;43.434;28.338;2023-12-14T09:01:38;99155.34;;;14.08;79.40
80853;BME280;70270;43.434;28.338;2023-12-14T09:04:23;99163.47;;;14.20;79.40
80853;BME280;70270;43.434;28.338;2023-12-14T09:07:08;99167.56;;;14.23;79.32
80853;BME280;70270;43.434;28.338;2023-12-14T09:09:52;99146.59;;;14.23;79.07
80853;BME280;70270;43.434;28.338;2023-12-14T09:12:36;99140.75;;;14.31;78.48
80853;BME280;70270;43.434;28.338;2023-12-14T09:15:21;99139.19;;;14.35;77.89
80853;BME280;70270;43.434;28.338;2023-12-14T09:18:05;99157.84;;;14.60;77.67
80853;BME280;70270;43.434;28.338;2023-12-14T09:20:50;99152.50;;;14.70;77.54
80853;BME280;70270;43.434;28.338;2023-12-14T09:23:34;99140.81;;;14.53;77.91
80853;BME280;70270;43.434;28.338;2023-12-14T09:26:19;99084.38;;;13.98;77.89
80853;BME280;70270;43.434;28.338;2023-12-14T09:29:04;99149.47;;;14.33;78.66
80853;BME280;70270;43.434;28.338;2023-12-14T09:31:48;99120.66;;;14.21;78.60
80853;BME280;70270;43.434;28.338;2023-12-14T09:34:33;99136.94;;;14.49;78.61
80853;BME280;70270;43.434;28.338;2023-12-14T09:37:17;99152.84;;;14.74;78.10
80853;BME280;70270;43.434;28.338;2023-12-14T09:40:02;99150.28;;;14.67;77.75
80853;BME280;70270;43.434;28.338;2023-12-14T09:42:46;99136.66;;;14.67;78.31
80853;BME280;70270;43.434;28.338;2023-12-14T09:45:30;99153.44;;;14.76;78.28
80853;BME280;70270;43.434;28.338;2023-12-14T09:48:16;99136.78;;;14.77;78.18
80853;BME280;70270;43.434;28.338;2023-12-14T09:51:00;99129.72;;;14.76;78.59
80853;BME280;70270;43.434;28.338;2023-12-14T09:53:44;99068.16;;;14.25;78.32
80853;BME280;70270;43.434;28.338;2023-12-14T09:56:29;99052.81;;;14.36;78.27
80853;BME280;70270;43.434;28.338;2023-12-14T09:59:15;99058.06;;;14.42;77.90
80853;BME280;70270;43.434;28.338;2023-12-14T10:02:12;99155.31;;;14.97;78.31
80853;BME280;70270;43.434;28.338;2023-12-14T10:04:57;99134.69;;;14.63;79.10
80853;BME280;70270;43.434;28.338;2023-12-14T10:07:42;99136.75;;;14.72;79.01
80853;BME280;70270;43.434;28.338;2023-12-14T10:10:28;99140.81;;;14.53;79.35
80853;BME280;70270;43.434;28.338;2023-12-14T10:13:12;99074.63;;;14.36;78.65
80853;BME280;70270;43.434;28.338;2023-12-14T10:15:57;99150.03;;;14.69;79.19
80853;BME280;70270;43.434;28.338;2023-12-14T10:18:42;99028.41;;;14.07;79.73
80853;BME280;70270;43.434;28.338;2023-12-14T10:28:14;99135.88;;;14.50;80.48
80853;BME280;70270;43.434;28.338;2023-12-14T10:30:59;99111.00;;;14.30;80.72
80853;BME280;70270;43.434;28.338;2023-12-14T10:33:44;99130.41;;;14.50;80.23
80853;BME280;70270;43.434;28.338;2023-12-14T10:36:28;99139.31;;;14.62;79.78
80853;BME280;70270;43.434;28.338;2023-12-14T10:39:14;99134.88;;;14.56;79.77
80853;BME280;70270;43.434;28.338;2023-12-14T10:42:02;99147.06;;;14.70;79.43
80853;BME280;70270;43.434;28.338;2023-12-14T10:44:51;99115.00;;;14.61;79.21
80853;BME280;70270;43.434;28.338;2023-12-14T10:47:39;99147.28;;;14.47;79.45
80853;BME280;70270;43.434;28.338;2023-12-14T10:50:30;99152.88;;;14.57;79.08
80853;BME280;70270;43.434;28.338;2023-12-14T10:53:15;99116.53;;;14.51;78.89
80853;BME280;70270;43.434;28.338;2023-12-14T10:56:00;99054.28;;;14.27;78.21
80853;BME280;70270;43.434;28.338;2023-12-14T10:58:56;99125.41;;;14.80;77.83
80853;BME280;70270;43.434;28.338;2023-12-14T11:01:42;99115.88;;;14.83;77.21
80853;BME280;70270;43.434;28.338;2023-12-14T11:04:27;99150.69;;;14.97;77.05
80853;BME280;70270;43.434;28.338;2023-12-14T11:07:11;99135.66;;;15.17;76.30
80853;BME280;70270;43.434;28.338;2023-12-14T11:09:56;99127.47;;;15.17;76.46
80853;BME280;70270;43.434;28.338;2023-12-14T11:13:10;99132.06;;;15.11;76.64
80853;BME280;70270;43.434;28.338;2023-12-14T11:15:55;99114.69;;;15.44;75.25
80853;BME280;70270;43.434;28.338;2023-12-14T11:18:40;99115.44;;;15.61;73.50
80853;BME280;70270;43.434;28.338;2023-12-14T11:21:25;99145.66;;;15.76;72.93
80853;BME280;70270;43.434;28.338;2023-12-14T11:24:09;99079.75;;;15.46;72.72
80853;BME280;70270;43.434;28.338;2023-12-14T11:26:54;99148.28;;;15.98;73.05
80853;BME280;70270;43.434;28.338;2023-12-14T11:29:38;99149.59;;;15.42;73.60
80853;BME280;70270;43.434;28.338;2023-12-14T11:32:26;99155.72;;;15.06;75.12
80853;BME280;70270;43.434;28.338;2023-12-14T11:35:10;99118.22;;;14.74;76.49
80853;BME280;70270;43.434;28.338;2023-12-14T11:37:56;99124.19;;;14.71;76.80
80853;BME280;70270;43.434;28.338;2023-12-14T11:40:43;99048.44;;;14.57;76.37
80853;BME280;70270;43.434;28.338;2023-12-14T11:43:27;99113.97;;;15.05;74.67
80853;BME280;70270;43.434;28.338;2023-12-14T11:46:13;99080.28;;;15.16;73.93
80853;BME280;70270;43.434;28.338;2023-12-14T11:48:58;99052.25;;;15.26;72.61
80853;BME280;70270;43.434;28.338;2023-12-14T11:51:46;99060.75;;;15.51;72.11
80853;BME280;70270;43.434;28.338;2023-12-14T11:54:30;99071.13;;;15.27;71.74
80853;BME280;70270;43.434;28.338;2023-12-14T11:57:16;99143.59;;;15.18;72.85
80853;BME280;70270;43.434;28.338;2023-12-14T12:00:00;99068.94;;;15.03;72.59
80853;BME280;70270;43.434;28.338;2023-12-14T12:02:45;99166.81;;;15.21;74.01
80853;BME280;70270;43.434;28.338;2023-12-14T12:05:42;99156.34;;;15.13;74.80
80853;BME280;70270;43.434;28.338;2023-12-14T12:08:26;99158.06;;;15.19;74.42
80853;BME280;70270;43.434;28.338;2023-12-14T12:11:16;99152.16;;;15.27;73.54
80853;BME280;70270;43.434;28.338;2023-12-14T12:14:01;99054.59;;;14.69;74.13
80853;BME280;70270;43.434;28.338;2023-12-14T12:16:45;99138.59;;;15.10;74.59
80853;BME280;70270;43.434;28.338;2023-12-14T12:19:37;99094.94;;;14.88;74.15
80853;BME280;70270;43.434;28.338;2023-12-14T12:22:21;99124.88;;;15.27;73.51
80853;BME280;70270;43.434;28.338;2023-12-14T12:25:06;99144.31;;;15.52;72.71
80853;BME280;70270;43.434;28.338;2023-12-14T12:27:51;99142.13;;;15.54;72.55
80853;BME280;70270;43.434;28.338;2023-12-14T12:30:35;99089.47;;;15.37;72.72
80853;BME280;70270;43.434;28.338;2023-12-14T12:33:19;99156.41;;;15.61;72.41
80853;BME280;70270;43.434;28.338;2023-12-14T12:36:05;99120.25;;;15.27;73.14
80853;BME280;70270;43.434;28.338;2023-12-14T12:38:50;99164.16;;;15.26;73.87
80853;BME280;70270;43.434;28.338;2023-12-14T12:41:35;99058.16;;;14.69;73.11
80853;BME280;70270;43.434;28.338;2023-12-14T12:44:22;99166.00;;;15.42;73.08
80853;BME280;70270;43.434;28.338;2023-12-14T12:47:06;99153.81;;;15.28;73.53
80853;BME280;70270;43.434;28.338;2023-12-14T12:49:51;99176.38;;;15.45;73.00
80853;BME280;70270;43.434;28.338;2023-12-14T12:52:35;99163.78;;;15.39;73.79
80853;BME280;70270;43.434;28.338;2023-12-14T12:55:21;99170.44;;;15.26;74.09
80853;BME280;70270;43.434;28.338;2023-12-14T12:58:05;99171.72;;;15.19;74.49
80853;BME280;70270;43.434;28.338;2023-12-14T13:00:51;99179.22;;;15.50;73.49
80853;BME280;70270;43.434;28.338;2023-12-14T13:03:35;99108.59;;;15.59;72.28
80853;BME280;70270;43.434;28.338;2023-12-14T13:06:21;99153.28;;;16.06;71.47
80853;BME280;70270;43.434;28.338;2023-12-14T13:09:05;99184.78;;;16.14;70.94
80853;BME280;70270;43.434;28.338;2023-12-14T13:11:50;99184.06;;;16.23;69.59
80853;BME280;70270;43.434;28.338;2023-12-14T13:14:37;99203.31;;;16.38;68.93
80853;BME280;70270;43.434;28.338;2023-12-14T13:17:21;99202.63;;;16.21;69.17
80853;BME280;70270;43.434;28.338;2023-12-14T13:20:07;99218.81;;;16.28;69.45
80853;BME280;70270;43.434;28.338;2023-12-14T13:22:51;99215.44;;;16.21;69.30
80853;BME280;70270;43.434;28.338;2023-12-14T13:25:37;99220.28;;;16.09;69.75
80853;BME280;70270;43.434;28.338;2023-12-14T13:28:21;99223.19;;;16.29;68.99
80853;BME280;70270;43.434;28.338;2023-12-14T13:31:06;99234.34;;;16.54;67.97
80853;BME280;70270;43.434;28.338;2023-12-14T13:33:50;99226.75;;;16.29;67.97
80853;BME280;70270;43.434;28.338;2023-12-14T13:36:35;99249.25;;;16.36;67.46
80853;BME280;70270;43.434;28.338;2023-12-14T13:39:19;99239.03;;;16.27;68.19
80853;BME280;70270;43.434;28.338;2023-12-14T13:42:06;99259.03;;;16.06;68.81
80853;BME280;70270;43.434;28.338;2023-12-14T13:44:51;99244.81;;;16.30;67.63
80853;BME280;70270;43.434;28.338;2023-12-14T13:47:35;99247.06;;;16.38;66.91
80853;BME280;70270;43.434;28.338;2023-12-14T13:50:20;99235.72;;;16.25;66.77
80853;BME280;70270;43.434;28.338;2023-12-14T13:53:05;99259.97;;;16.43;66.60
80853;BME280;70270;43.434;28.338;2023-12-14T13:55:50;99254.00;;;16.19;66.92
80853;BME280;70270;43.434;28.338;2023-12-14T13:58:34;99276.06;;;16.39;65.99
80853;BME280;70270;43.434;28.338;2023-12-14T14:01:21;99273.78;;;16.58;65.08
80853;BME280;70270;43.434;28.338;2023-12-14T14:04:05;99269.34;;;16.52;64.21
80853;BME280;70270;43.434;28.338;2023-12-14T14:06:50;99276.16;;;16.50;64.13
80853;BME280;70270;43.434;28.338;2023-12-14T14:09:35;99296.69;;;16.52;63.74
80853;BME280;70270;43.434;28.338;2023-12-14T14:12:19;99295.09;;;16.56;63.71
80853;BME280;70270;43.434;28.338;2023-12-14T14:15:04;99316.84;;;16.68;63.99
80853;BME280;70270;43.434;28.338;2023-12-14T14:17:49;99254.09;;;16.29;63.78
80853;BME280;70270;43.434;28.338;2023-12-14T14:20:36;99323.88;;;16.91;63.46
80853;BME280;70270;43.434;28.338;2023-12-14T14:23:20;99322.00;;;16.64;64.25
80853;BME280;70270;43.434;28.338;2023-12-14T14:26:05;99323.63;;;16.65;64.82
80853;BME280;70270;43.434;28.338;2023-12-14T14:28:50;99333.56;;;16.71;64.64